Rangeley, Maine
Current Conditions -  °F | °C
As of 10:52 AM on Thursday 30 Oct 2014 (Local Time) from KBML Reporting Station
Overcast Overcast  
Wind Chill: 44°   Ceiling: 3400
Heat Index: 47°   Visibility: 10mi
Dew Point: 40°   Wind: 6mph
Humidity: 77%   Direction: 290°WNW
Pressure: 29.9"   Gusts: NA
Location:  44.97°N, 70.65°W
Report Text: KBML 301452Z AUTO 29005KT 10SM OVC034 08/04 A2990 RMK AO2 RAB1356E08 SLP134 P0000 60000 T00830044 51009
Loading
Personal Weather Stations






























Interactive Weather Map
Tropical Storm Tracking
New forecast layout! Learn more

10-Day Weather Forecast

Advertisements
Track Severe Weather on mobile